Time;durP1;ratioP1;P1;durP2;ratioP2;P2;SDS_P1;SDS_P2;PMS_P1;PMS_P2;Temp;Humidity;BMP_temperature;BMP_pressure;BME280_temperature;BME280_humidity;BME280_pressure;Samples;Min_cycle;Max_cycle;Signal;HPM_P1;HPM_P2
2022/08/30 00:06:23;;;;;;;5.80;2.27;;;22.90;85.90;;;;;;7531593;78;26269;-57
2022/08/30 00:16:25;;;;;;;3.98;2.20;;;22.90;85.20;;;;;;7593631;78;26409;-58
2022/08/30 00:26:28;;;;;;;3.87;2.20;;;22.80;83.90;;;;;;7529148;78;26282;-58
2022/08/30 00:36:30;;;;;;;3.98;2.20;;;22.80;83.50;;;;;;7487909;78;26723;-57
2022/08/30 00:46:33;;;;;;;11.00;2.47;;;22.80;83.00;;;;;;7533118;78;26258;-58
2022/08/30 00:56:36;;;;;;;10.58;2.50;;;22.80;82.60;;;;;;7626559;78;26254;-57
2022/08/30 01:06:38;;;;;;;2.62;1.62;;;22.70;82.70;;;;;;7622601;78;27528;-57
2022/08/30 01:16:45;;;;;;;4.85;2.50;;;22.70;82.10;;;;;;7613729;78;26314;-59
2022/08/30 01:26:47;;;;;;;3.42;1.98;;;22.70;82.40;;;;;;7568870;77;27148;-58
2022/08/30 01:36:49;;;;;;;5.03;2.40;;;22.60;82.20;;;;;;7590961;78;26251;-58
2022/08/30 01:46:52;;;;;;;3.13;1.97;;;22.60;82.10;;;;;;7618274;77;26292;-58
2022/08/30 01:56:55;;;;;;;4.35;2.70;;;22.50;82.00;;;;;;7614105;78;26708;-58
2022/08/30 02:06:57;;;;;;;3.92;2.08;;;22.50;81.70;;;;;;7597790;78;26250;-55
2022/08/30 02:17:01;;;;;;;3.25;2.08;;;22.50;81.60;;;;;;7618467;77;26254;-58
2022/08/30 02:27:03;;;;;;;4.78;2.47;;;22.50;81.60;;;;;;7602452;78;26727;-58
2022/08/30 02:37:07;;;;;;;3.92;1.98;;;22.40;81.30;;;;;;7490169;79;26618;-58
2022/08/30 02:47:11;;;;;;;4.58;2.65;;;22.40;81.30;;;;;;7581594;78;26258;-58
2022/08/30 02:57:13;;;;;;;3.42;1.95;;;22.40;81.20;;;;;;7567960;78;26290;-58
2022/08/30 03:07:16;;;;;;;7.30;1.92;;;22.40;81.30;;;;;;7492298;78;26763;-57
2022/08/30 03:17:18;;;;;;;4.22;2.12;;;22.30;82.20;;;;;;7528591;78;26308;-57
2022/08/30 03:27:21;;;;;;;3.87;2.12;;;22.30;83.60;;;;;;7490707;78;26868;-58
2022/08/30 03:37:23;;;;;;;6.42;2.25;;;22.30;82.60;;;;;;7501766;78;26394;-58
2022/08/30 03:47:26;;;;;;;3.80;2.00;;;22.20;82.40;;;;;;7469344;78;26254;-58
2022/08/30 03:57:29;;;;;;;6.80;2.37;;;22.20;81.50;;;;;;7529214;78;26250;-58
2022/08/30 04:07:31;;;;;;;5.78;2.40;;;22.10;81.90;;;;;;7530708;78;26323;-57
2022/08/30 04:17:34;;;;;;;3.77;2.20;;;22.10;81.70;;;;;;7543864;78;26894;-57
2022/08/30 04:27:36;;;;;;;5.47;2.10;;;22.10;81.80;;;;;;7602237;78;26259;-58
2022/08/30 04:37:39;;;;;;;4.15;2.17;;;22.00;81.80;;;;;;7607882;77;26385;-58
2022/08/30 04:47:43;;;;;;;3.70;2.05;;;22.00;81.70;;;;;;7580720;78;26250;-58
2022/08/30 04:57:45;;;;;;;5.65;2.37;;;21.90;81.70;;;;;;7531623;78;26257;-58
2022/08/30 05:07:48;;;;;;;5.10;2.15;;;21.90;81.60;;;;;;7586574;78;26756;-58
2022/08/30 05:17:51;;;;;;;3.62;2.22;;;21.80;81.70;;;;;;7583902;78;26331;-57
2022/08/30 05:27:54;;;;;;;5.42;2.62;;;21.80;82.70;;;;;;7537726;78;26717;-58
2022/08/30 05:37:56;;;;;;;2.83;1.80;;;21.80;82.30;;;;;;7582364;78;26774;-57
2022/08/30 05:48:00;;;;;;;3.20;2.07;;;21.80;82.70;;;;;;7568392;78;26269;-55
2022/08/30 05:58:02;;;;;;;2.87;1.77;;;21.80;83.10;;;;;;7571258;78;26246;-58
2022/08/30 06:08:05;;;;;;;5.20;2.07;;;21.90;83.50;;;;;;7614422;78;26317;-58
2022/08/30 06:18:08;;;;;;;4.10;2.10;;;21.80;83.90;;;;;;7613544;78;26323;-59
2022/08/30 06:28:10;;;;;;;6.93;2.20;;;21.80;84.30;;;;;;7553851;78;26292;-57
2022/08/30 06:38:13;;;;;;;5.63;2.10;;;21.90;84.60;;;;;;7571711;77;26269;-57
2022/08/30 06:48:16;;;;;;;13.83;3.17;;;21.90;84.50;;;;;;7500716;78;26331;-57
2022/08/30 06:58:18;;;;;;;4.83;2.77;;;21.90;85.90;;;;;;7612617;78;26276;-58
2022/08/30 07:08:21;;;;;;;9.35;2.60;;;22.00;85.90;;;;;;7576323;78;26841;-58
2022/08/30 07:28:46;;;;;;;11.37;3.37;;;21.80;86.80;;;;;;7488260;78;26221;-58
2022/08/30 07:38:50;;;;;;;12.50;3.33;;;21.80;87.50;;;;;;7496973;78;26258;-58
2022/08/30 07:48:54;;;;;;;8.73;3.10;;;21.80;87.40;;;;;;7585084;78;26907;-55
2022/08/30 07:58:56;;;;;;;11.30;2.87;;;22.00;87.30;;;;;;7470069;78;26386;-57
2022/08/30 08:09:01;;;;;;;8.33;3.00;;;22.00;87.00;;;;;;7484026;78;26429;-57
2022/08/30 08:19:07;;;;;;;7.47;2.77;;;22.10;87.10;;;;;;7472694;78;26359;-58
2022/08/30 08:29:08;;;;;;;7.60;2.60;;;22.10;86.70;;;;;;7480110;78;26367;-58
2022/08/30 08:39:11;;;;;;;9.00;3.55;;;22.20;86.60;;;;;;7468436;78;26284;-58
2022/08/30 08:49:14;;;;;;;11.67;3.27;;;22.30;86.40;;;;;;7491015;78;26255;-58
2022/08/30 08:59:17;;;;;;;8.73;3.53;;;22.30;87.70;;;;;;7571692;78;26777;-58
2022/08/30 09:09:22;;;;;;;15.60;4.20;;;22.40;87.00;;;;;;7528907;78;26803;-58
2022/08/30 09:19:31;;;;;;;13.63;3.60;;;22.50;88.70;;;;;;7478998;78;26331;-58
2022/08/30 09:29:33;;;;;;;8.95;3.10;;;22.50;88.20;;;;;;7508664;78;26777;-58
2022/08/30 09:39:38;;;;;;;7.20;2.58;;;22.60;86.30;;;;;;7548094;78;26350;-55
2022/08/30 09:49:43;;;;;;;4.95;2.77;;;22.70;83.90;;;;;;7540991;78;26261;-58
2022/08/30 09:59:51;;;;;;;8.75;2.95;;;22.70;83.40;;;;;;7421289;79;26261;-58
2022/08/30 10:10:06;;;;;;;6.83;2.87;;;22.70;84.40;;;;;;7499697;78;26253;-58
2022/08/30 10:20:11;;;;;;;8.58;2.75;;;22.80;84.00;;;;;;7502687;79;26280;-59
2022/08/30 10:30:15;;;;;;;3.52;2.27;;;22.80;84.20;;;;;;7428130;79;26316;-58
2022/08/30 10:50:55;;;;;;;4.58;2.40;;;22.90;84.70;;;;;;7504771;78;26254;-56
2022/08/30 11:01:17;;;;;;;11.85;2.87;;;22.90;84.60;;;;;;7468033;78;26253;-58
2022/08/30 11:11:23;;;;;;;11.80;2.80;;;22.90;85.00;;;;;;7457140;79;26257;-58
2022/08/30 11:21:38;;;;;;;11.20;3.08;;;23.10;82.20;;;;;;7415046;78;26943;-57
2022/08/30 11:31:41;;;;;;;6.20;2.65;;;23.00;84.00;;;;;;7556289;78;26304;-58
2022/08/30 11:41:46;;;;;;;5.45;2.12;;;23.10;82.80;;;;;;7503217;78;26265;-58
2022/08/30 11:52:17;;;;;;;5.75;2.52;;;23.10;82.50;;;;;;7487872;78;26348;-58
2022/08/30 12:02:46;;;;;;;6.08;2.85;;;23.20;81.50;;;;;;7537061;78;26281;-55
2022/08/30 12:12:50;;;;;;;5.70;2.42;;;23.20;82.10;;;;;;7512323;78;26339;-56
2022/08/30 12:22:54;;;;;;;3.80;2.20;;;23.30;81.80;;;;;;7478798;78;26385;-58
2022/08/30 12:32:57;;;;;;;4.37;2.33;;;23.30;81.20;;;;;;7468375;78;26257;-58
2022/08/30 12:43:03;;;;;;;8.08;2.62;;;23.30;80.70;;;;;;7429773;79;26743;-58
2022/08/30 12:53:09;;;;;;;4.00;2.52;;;23.30;80.50;;;;;;7439813;78;26307;-57
2022/08/30 13:03:27;;;;;;;4.72;2.40;;;23.40;80.10;;;;;;7464959;79;26249;-57
2022/08/30 13:13:36;;;;;;;6.70;2.52;;;23.50;78.40;;;;;;7483637;78;26249;-58
2022/08/30 13:23:38;;;;;;;7.17;3.02;;;23.50;79.20;;;;;;7459426;79;26269;-57
2022/08/30 13:33:44;;;;;;;5.22;2.80;;;23.60;77.30;;;;;;7437225;79;26276;-56
2022/08/30 13:43:46;;;;;;;6.10;3.90;;;23.50;77.70;;;;;;7478393;78;26277;-58
2022/08/30 13:53:49;;;;;;;6.87;2.55;;;23.60;77.80;;;;;;7490823;78;26245;-57
2022/08/30 14:03:51;;;;;;;6.08;2.47;;;23.60;77.60;;;;;;7444387;79;26257;-58
2022/08/30 14:13:54;;;;;;;5.37;2.35;;;23.60;77.40;;;;;;7510646;78;26805;-58
2022/08/30 14:23:58;;;;;;;8.38;3.47;;;23.70;77.00;;;;;;7392713;79;26327;-58
2022/08/30 14:34:02;;;;;;;8.58;2.62;;;23.60;76.80;;;;;;7380967;80;26258;-57
2022/08/30 14:44:04;;;;;;;8.58;2.62;;;23.70;77.30;;;;;;7400945;79;26742;-57
2022/08/30 14:54:08;;;;;;;4.12;2.40;;;23.80;75.20;;;;;;7490184;79;26253;-57
2022/08/30 15:04:12;;;;;;;4.30;2.27;;;23.80;76.20;;;;;;7502962;79;26257;-58
2022/08/30 15:14:15;;;;;;;3.80;2.45;;;23.80;76.40;;;;;;7503425;79;26253;-59
2022/08/30 15:24:23;;;;;;;4.95;2.27;;;23.80;77.50;;;;;;7391425;79;26282;-58
2022/08/30 15:34:25;;;;;;;10.40;2.80;;;23.80;77.00;;;;;;7463305;78;26315;-59
2022/08/30 15:44:29;;;;;;;3.55;2.47;;;23.80;76.60;;;;;;7502933;79;26369;-56
2022/08/30 15:54:32;;;;;;;6.67;2.37;;;23.80;75.40;;;;;;7388151;79;26728;-57
2022/08/30 16:04:35;;;;;;;5.72;2.33;;;23.90;76.50;;;;;;7381402;80;26234;-58
2022/08/30 16:14:38;;;;;;;6.42;2.72;;;23.90;76.90;;;;;;7408844;79;26308;-59
2022/08/30 16:24:42;;;;;;;3.08;2.35;;;23.90;76.80;;;;;;7386455;79;26266;-58
2022/08/30 16:34:44;;;;;;;3.47;2.67;;;23.90;77.10;;;;;;7381610;80;26289;-57
2022/08/30 16:44:47;;;;;;;2.95;2.30;;;23.90;77.20;;;;;;7410520;79;26383;-56
2022/08/30 16:54:50;;;;;;;5.25;2.40;;;23.90;75.30;;;;;;7384440;79;26346;-55
2022/08/30 17:04:52;;;;;;;4.28;2.62;;;24.00;77.00;;;;;;7381477;80;26246;-58
2022/08/30 17:14:54;;;;;;;4.22;2.77;;;24.00;77.10;;;;;;7411696;79;26323;-58
2022/08/30 17:24:57;;;;;;;3.27;2.42;;;24.00;77.10;;;;;;7414691;78;26348;-56
2022/08/30 17:35:00;;;;;;;4.62;2.98;;;24.00;77.20;;;;;;7502399;79;26258;-57
2022/08/30 17:45:05;;;;;;;6.50;2.70;;;24.00;76.90;;;;;;7498775;79;26751;-57
2022/08/30 17:55:08;;;;;;;3.80;2.20;;;24.00;77.20;;;;;;7380967;80;26260;-58
2022/08/30 18:05:12;;;;;;;6.10;3.00;;;24.00;77.90;;;;;;7381705;80;26264;-58
2022/08/30 18:15:14;;;;;;;6.97;2.45;;;24.00;77.50;;;;;;7413418;79;26249;-58
2022/08/30 18:25:17;;;;;;;5.30;2.30;;;24.00;78.30;;;;;;7380868;80;26337;-56
2022/08/30 18:35:20;;;;;;;3.95;2.40;;;23.90;78.20;;;;;;7380800;80;26301;-58
2022/08/30 18:45:22;;;;;;;5.60;3.02;;;23.90;78.10;;;;;;7413592;79;26743;-58
2022/08/30 18:55:25;;;;;;;5.70;2.75;;;23.90;78.20;;;;;;7381660;80;26227;-59
2022/08/30 19:05:28;;;;;;;7.20;3.00;;;23.90;78.30;;;;;;7381259;80;26301;-58
2022/08/30 19:15:36;;;;;;;8.48;2.70;;;23.80;78.20;;;;;;7413762;79;26262;-57
2022/08/30 19:25:36;;;;;;;5.47;2.67;;;23.80;78.20;;;;;;7380449;80;26340;-57
2022/08/30 19:35:39;;;;;;;4.45;3.10;;;23.70;78.90;;;;;;7449049;78;26754;-57
2022/08/30 19:45:41;;;;;;;8.35;3.00;;;23.70;78.90;;;;;;7491664;79;26266;-57
2022/08/30 19:55:44;;;;;;;6.10;2.60;;;23.70;79.00;;;;;;7382069;80;26248;-57
2022/08/30 20:05:47;;;;;;;17.27;3.47;;;23.60;79.40;;;;;;7420307;79;26335;-58
2022/08/30 20:15:54;;;;;;;10.82;3.33;;;23.60;81.50;;;;;;7431797;78;26805;-58
2022/08/30 20:25:57;;;;;;;28.30;4.80;;;23.40;84.20;;;;;;7438936;79;26285;-58
2022/08/30 20:36:04;;;;;;;6.00;2.72;;;23.50;84.50;;;;;;7436782;79;26229;-58
2022/08/30 20:46:11;;;;;;;12.03;3.15;;;23.40;83.40;;;;;;7437082;79;26241;-57
2022/08/30 20:56:16;;;;;;;17.15;3.37;;;23.40;83.90;;;;;;7438484;79;26229;-56
2022/08/30 21:06:20;;;;;;;7.95;2.90;;;23.40;83.40;;;;;;7437781;79;26666;-56
2022/08/30 21:16:23;;;;;;;8.48;3.27;;;23.40;84.00;;;;;;7457104;79;26713;-57
2022/08/30 21:26:25;;;;;;;38.25;4.67;;;23.50;85.00;;;;;;7440262;79;26252;-55
2022/08/30 21:36:46;;;;;;;27.98;4.28;;;23.50;85.40;;;;;;7502937;79;26362;-57
2022/08/30 21:46:51;;;;;;;18.85;4.00;;;23.50;85.50;;;;;;7495918;78;26802;-58
2022/08/30 21:56:55;;;;;;;24.55;4.15;;;23.50;85.50;;;;;;7492260;79;26343;-56
2022/08/30 22:06:59;;;;;;;22.25;3.42;;;23.50;86.60;;;;;;7502401;78;26376;-57
2022/08/30 22:17:01;;;;;;;11.35;3.27;;;23.50;86.90;;;;;;7478970;79;26305;-55
2022/08/30 22:27:04;;;;;;;16.52;2.90;;;23.40;86.90;;;;;;7381281;80;26720;-57
2022/08/30 22:37:06;;;;;;;12.60;3.10;;;23.40;86.90;;;;;;7381842;80;26215;-57
2022/08/30 22:47:09;;;;;;;9.10;3.08;;;23.30;86.50;;;;;;7440848;79;26740;-56
2022/08/30 22:57:14;;;;;;;6.75;2.72;;;23.40;86.10;;;;;;7375073;80;26231;-57
2022/08/30 23:07:16;;;;;;;12.58;2.77;;;23.30;85.60;;;;;;7404112;78;26834;-56
2022/08/30 23:17:19;;;;;;;10.65;2.90;;;23.30;85.60;;;;;;7505842;78;26390;-57
